sensor_id;sensor_type;location;lat;lon;timestamp;P1;durP1;ratioP1;P2;durP2;ratioP2
2850;SDS011;1433;49.976;8.342;2023-02-17T00:03:54;48.53;;;34.90;;
2850;SDS011;1433;49.976;8.342;2023-02-17T00:06:24;40.53;;;36.00;;
2850;SDS011;1433;49.976;8.342;2023-02-17T00:08:54;40.53;;;36.50;;
2850;SDS011;1433;49.976;8.342;2023-02-17T00:11:22;37.60;;;33.60;;
2850;SDS011;1433;49.976;8.342;2023-02-17T00:13:48;39.03;;;34.90;;
2850;SDS011;1433;49.976;8.342;2023-02-17T00:16:18;39.80;;;35.50;;
2850;SDS011;1433;49.976;8.342;2023-02-17T00:18:46;38.53;;;34.40;;
2850;SDS011;1433;49.976;8.342;2023-02-17T00:21:20;40.10;;;35.67;;
2850;SDS011;1433;49.976;8.342;2023-02-17T00:23:49;40.37;;;35.80;;
2850;SDS011;1433;49.976;8.342;2023-02-17T00:26:17;39.60;;;35.43;;
2850;SDS011;1433;49.976;8.342;2023-02-17T00:28:46;38.13;;;34.10;;
2850;SDS011;1433;49.976;8.342;2023-02-17T00:31:14;43.30;;;36.03;;
2850;SDS011;1433;49.976;8.342;2023-02-17T00:33:43;40.80;;;36.40;;
2850;SDS011;1433;49.976;8.342;2023-02-17T00:36:10;45.13;;;35.83;;
2850;SDS011;1433;49.976;8.342;2023-02-17T00:38:42;42.33;;;35.93;;
2850;SDS011;1433;49.976;8.342;2023-02-17T00:41:09;40.40;;;33.20;;
2850;SDS011;1433;49.976;8.342;2023-02-17T00:43:35;44.13;;;36.13;;
2850;SDS011;1433;49.976;8.342;2023-02-17T00:46:01;39.20;;;35.20;;
2850;SDS011;1433;49.976;8.342;2023-02-17T00:48:29;40.00;;;35.40;;
2850;SDS011;1433;49.976;8.342;2023-02-17T00:50:56;40.30;;;35.70;;
2850;SDS011;1433;49.976;8.342;2023-02-17T00:53:22;36.83;;;33.10;;
2850;SDS011;1433;49.976;8.342;2023-02-17T00:55:48;39.30;;;35.20;;
2850;SDS011;1433;49.976;8.342;2023-02-17T00:58:15;42.00;;;36.10;;
2850;SDS011;1433;49.976;8.342;2023-02-17T01:00:41;36.93;;;32.90;;
2850;SDS011;1433;49.976;8.342;2023-02-17T01:03:08;42.50;;;37.40;;
2850;SDS011;1433;49.976;8.342;2023-02-17T01:05:39;38.10;;;34.00;;
2850;SDS011;1433;49.976;8.342;2023-02-17T01:08:08;38.70;;;34.60;;
2850;SDS011;1433;49.976;8.342;2023-02-17T01:10:35;36.70;;;33.00;;
2850;SDS011;1433;49.976;8.342;2023-02-17T01:13:04;37.07;;;33.10;;
2850;SDS011;1433;49.976;8.342;2023-02-17T01:15:36;38.97;;;34.67;;
2850;SDS011;1433;49.976;8.342;2023-02-17T01:18:04;37.17;;;32.90;;
2850;SDS011;1433;49.976;8.342;2023-02-17T01:20:33;38.90;;;34.90;;
2850;SDS011;1433;49.976;8.342;2023-02-17T01:23:00;40.40;;;34.87;;
2850;SDS011;1433;49.976;8.342;2023-02-17T01:25:28;39.53;;;34.90;;
2850;SDS011;1433;49.976;8.342;2023-02-17T01:27:54;40.27;;;34.77;;
2850;SDS011;1433;49.976;8.342;2023-02-17T01:30:21;35.60;;;31.90;;
2850;SDS011;1433;49.976;8.342;2023-02-17T01:32:48;37.73;;;33.63;;
2850;SDS011;1433;49.976;8.342;2023-02-17T01:35:15;39.60;;;35.30;;
2850;SDS011;1433;49.976;8.342;2023-02-17T01:37:41;39.63;;;32.80;;
2850;SDS011;1433;49.976;8.342;2023-02-17T01:40:07;37.83;;;33.80;;
2850;SDS011;1433;49.976;8.342;2023-02-17T01:42:34;36.43;;;31.17;;
2850;SDS011;1433;49.976;8.342;2023-02-17T01:50:45;35.40;;;31.90;;
2850;SDS011;1433;49.976;8.342;2023-02-17T01:53:28;37.30;;;33.47;;
2850;SDS011;1433;49.976;8.342;2023-02-17T01:56:02;36.00;;;31.80;;
2850;SDS011;1433;49.976;8.342;2023-02-17T01:58:31;36.37;;;32.57;;
2850;SDS011;1433;49.976;8.342;2023-02-17T02:00:59;37.33;;;33.33;;
2850;SDS011;1433;49.976;8.342;2023-02-17T02:03:28;40.70;;;36.40;;
2850;SDS011;1433;49.976;8.342;2023-02-17T02:05:58;38.83;;;34.60;;
2850;SDS011;1433;49.976;8.342;2023-02-17T02:08:27;38.37;;;34.27;;
2850;SDS011;1433;49.976;8.342;2023-02-17T02:10:57;38.40;;;34.30;;
2850;SDS011;1433;49.976;8.342;2023-02-17T02:13:25;41.37;;;35.00;;
2850;SDS011;1433;49.976;8.342;2023-02-17T02:15:56;39.43;;;34.77;;
2850;SDS011;1433;49.976;8.342;2023-02-17T02:18:45;36.97;;;33.07;;
2850;SDS011;1433;49.976;8.342;2023-02-17T02:24:45;33.50;;;30.00;;
2850;SDS011;1433;49.976;8.342;2023-02-17T02:32:59;36.83;;;32.90;;
2850;SDS011;1433;49.976;8.342;2023-02-17T02:35:45;37.50;;;33.60;;
2850;SDS011;1433;49.976;8.342;2023-02-17T02:38:34;34.63;;;31.03;;
2850;SDS011;1433;49.976;8.342;2023-02-17T02:41:16;32.40;;;28.90;;
2850;SDS011;1433;49.976;8.342;2023-02-17T02:43:58;26.00;;;23.13;;
2850;SDS011;1433;49.976;8.342;2023-02-17T02:46:32;27.70;;;20.37;;
2850;SDS011;1433;49.976;8.342;2023-02-17T02:48:59;18.17;;;16.30;;
2850;SDS011;1433;49.976;8.342;2023-02-17T02:54:15;17.80;;;15.93;;
2850;SDS011;1433;49.976;8.342;2023-02-17T02:59:46;17.03;;;13.90;;
2850;SDS011;1433;49.976;8.342;2023-02-17T03:11:07;15.27;;;12.90;;
2850;SDS011;1433;49.976;8.342;2023-02-17T03:13:35;13.33;;;12.13;;
2850;SDS011;1433;49.976;8.342;2023-02-17T03:16:05;14.17;;;12.80;;
2850;SDS011;1433;49.976;8.342;2023-02-17T03:18:32;13.93;;;12.20;;
2850;SDS011;1433;49.976;8.342;2023-02-17T03:21:05;14.37;;;12.97;;
2850;SDS011;1433;49.976;8.342;2023-02-17T03:23:35;12.53;;;11.30;;
2850;SDS011;1433;49.976;8.342;2023-02-17T03:26:02;14.17;;;12.70;;
2850;SDS011;1433;49.976;8.342;2023-02-17T03:28:28;12.90;;;11.60;;
2850;SDS011;1433;49.976;8.342;2023-02-17T03:30:56;12.30;;;11.10;;
2850;SDS011;1433;49.976;8.342;2023-02-17T03:33:22;12.00;;;10.83;;
2850;SDS011;1433;49.976;8.342;2023-02-17T03:35:51;12.50;;;10.93;;
2850;SDS011;1433;49.976;8.342;2023-02-17T03:38:17;15.67;;;11.77;;
2850;SDS011;1433;49.976;8.342;2023-02-17T03:40:43;10.00;;;9.00;;
2850;SDS011;1433;49.976;8.342;2023-02-17T03:43:09;11.27;;;10.13;;
2850;SDS011;1433;49.976;8.342;2023-02-17T03:45:36;11.67;;;10.57;;
2850;SDS011;1433;49.976;8.342;2023-02-17T03:48:03;11.77;;;10.50;;
2850;SDS011;1433;49.976;8.342;2023-02-17T03:50:29;12.23;;;9.60;;
2850;SDS011;1433;49.976;8.342;2023-02-17T03:52:56;11.03;;;9.87;;
2850;SDS011;1433;49.976;8.342;2023-02-17T03:55:22;8.40;;;7.60;;
2850;SDS011;1433;49.976;8.342;2023-02-17T03:57:48;10.73;;;9.70;;
2850;SDS011;1433;49.976;8.342;2023-02-17T04:00:15;10.77;;;9.77;;
2850;SDS011;1433;49.976;8.342;2023-02-17T04:02:41;10.53;;;9.33;;
2850;SDS011;1433;49.976;8.342;2023-02-17T04:05:08;9.17;;;8.07;;
2850;SDS011;1433;49.976;8.342;2023-02-17T04:07:34;9.73;;;8.83;;
2850;SDS011;1433;49.976;8.342;2023-02-17T04:10:00;9.33;;;8.47;;
2850;SDS011;1433;49.976;8.342;2023-02-17T04:12:26;11.07;;;9.00;;
2850;SDS011;1433;49.976;8.342;2023-02-17T04:14:53;9.73;;;8.73;;
2850;SDS011;1433;49.976;8.342;2023-02-17T04:17:19;10.03;;;9.03;;
2850;SDS011;1433;49.976;8.342;2023-02-17T04:19:45;9.10;;;8.30;;
2850;SDS011;1433;49.976;8.342;2023-02-17T04:22:11;9.17;;;8.37;;
2850;SDS011;1433;49.976;8.342;2023-02-17T04:24:38;9.57;;;8.67;;
2850;SDS011;1433;49.976;8.342;2023-02-17T04:27:05;9.50;;;8.70;;
2850;SDS011;1433;49.976;8.342;2023-02-17T04:29:32;9.20;;;8.40;;
2850;SDS011;1433;49.976;8.342;2023-02-17T04:31:58;8.10;;;7.43;;
2850;SDS011;1433;49.976;8.342;2023-02-17T04:34:25;8.27;;;7.57;;
2850;SDS011;1433;49.976;8.342;2023-02-17T04:36:51;8.30;;;7.53;;
2850;SDS011;1433;49.976;8.342;2023-02-17T04:39:17;9.03;;;8.17;;
2850;SDS011;1433;49.976;8.342;2023-02-17T04:41:44;8.90;;;8.10;;
2850;SDS011;1433;49.976;8.342;2023-02-17T04:44:10;8.43;;;7.73;;
2850;SDS011;1433;49.976;8.342;2023-02-17T04:46:38;8.17;;;7.30;;
2850;SDS011;1433;49.976;8.342;2023-02-17T04:49:05;7.53;;;6.83;;
2850;SDS011;1433;49.976;8.342;2023-02-17T04:51:31;8.17;;;7.27;;
2850;SDS011;1433;49.976;8.342;2023-02-17T04:53:57;12.90;;;6.80;;
2850;SDS011;1433;49.976;8.342;2023-02-17T04:56:23;6.03;;;5.60;;
2850;SDS011;1433;49.976;8.342;2023-02-17T04:58:50;7.10;;;6.53;;
2850;SDS011;1433;49.976;8.342;2023-02-17T05:01:16;7.60;;;5.43;;
2850;SDS011;1433;49.976;8.342;2023-02-17T05:03:42;6.20;;;5.67;;
2850;SDS011;1433;49.976;8.342;2023-02-17T05:06:08;6.87;;;6.23;;
2850;SDS011;1433;49.976;8.342;2023-02-17T05:08:35;7.03;;;6.33;;
2850;SDS011;1433;49.976;8.342;2023-02-17T05:11:01;6.27;;;5.67;;
2850;SDS011;1433;49.976;8.342;2023-02-17T05:13:27;5.83;;;5.40;;
2850;SDS011;1433;49.976;8.342;2023-02-17T05:15:54;5.73;;;5.30;;
2850;SDS011;1433;49.976;8.342;2023-02-17T05:18:20;5.60;;;5.10;;
2850;SDS011;1433;49.976;8.342;2023-02-17T05:20:46;6.37;;;5.73;;
2850;SDS011;1433;49.976;8.342;2023-02-17T05:23:12;6.10;;;5.60;;
2850;SDS011;1433;49.976;8.342;2023-02-17T05:25:39;6.00;;;5.40;;
2850;SDS011;1433;49.976;8.342;2023-02-17T05:28:05;5.80;;;5.20;;
2850;SDS011;1433;49.976;8.342;2023-02-17T05:30:31;5.20;;;4.77;;
2850;SDS011;1433;49.976;8.342;2023-02-17T05:32:58;6.07;;;5.50;;
2850;SDS011;1433;49.976;8.342;2023-02-17T05:35:25;3.90;;;3.60;;
2850;SDS011;1433;49.976;8.342;2023-02-17T05:37:52;5.57;;;5.07;;
2850;SDS011;1433;49.976;8.342;2023-02-17T05:40:18;5.67;;;5.17;;
2850;SDS011;1433;49.976;8.342;2023-02-17T05:42:44;5.33;;;4.83;;
2850;SDS011;1433;49.976;8.342;2023-02-17T05:45:10;5.70;;;5.20;;
2850;SDS011;1433;49.976;8.342;2023-02-17T05:47:37;4.60;;;4.30;;
2850;SDS011;1433;49.976;8.342;2023-02-17T05:50:03;5.47;;;4.80;;
2850;SDS011;1433;49.976;8.342;2023-02-17T05:52:32;4.87;;;4.47;;
2850;SDS011;1433;49.976;8.342;2023-02-17T05:54:58;5.07;;;4.63;;
2850;SDS011;1433;49.976;8.342;2023-02-17T05:57:25;4.77;;;4.37;;
2850;SDS011;1433;49.976;8.342;2023-02-17T05:59:52;4.90;;;4.40;;
2850;SDS011;1433;49.976;8.342;2023-02-17T06:02:18;4.40;;;4.00;;
2850;SDS011;1433;49.976;8.342;2023-02-17T06:04:45;4.77;;;4.33;;
2850;SDS011;1433;49.976;8.342;2023-02-17T06:07:12;5.60;;;5.10;;
2850;SDS011;1433;49.976;8.342;2023-02-17T06:09:38;5.53;;;5.03;;
2850;SDS011;1433;49.976;8.342;2023-02-17T06:12:04;5.67;;;5.20;;
2850;SDS011;1433;49.976;8.342;2023-02-17T06:14:31;8.20;;;5.10;;
2850;SDS011;1433;49.976;8.342;2023-02-17T06:16:57;5.10;;;4.70;;
2850;SDS011;1433;49.976;8.342;2023-02-17T06:19:25;5.00;;;4.60;;
2850;SDS011;1433;49.976;8.342;2023-02-17T06:21:52;4.83;;;4.33;;
2850;SDS011;1433;49.976;8.342;2023-02-17T06:24:18;6.17;;;5.57;;
2850;SDS011;1433;49.976;8.342;2023-02-17T06:26:44;5.13;;;4.63;;
2850;SDS011;1433;49.976;8.342;2023-02-17T06:29:10;5.37;;;4.87;;
2850;SDS011;1433;49.976;8.342;2023-02-17T06:31:37;5.30;;;4.87;;
2850;SDS011;1433;49.976;8.342;2023-02-17T06:34:03;5.33;;;4.93;;
2850;SDS011;1433;49.976;8.342;2023-02-17T06:36:29;5.23;;;4.83;;
2850;SDS011;1433;49.976;8.342;2023-02-17T06:38:56;5.47;;;5.07;;
2850;SDS011;1433;49.976;8.342;2023-02-17T06:41:22;5.67;;;5.27;;
2850;SDS011;1433;49.976;8.342;2023-02-17T06:43:49;5.77;;;5.27;;
2850;SDS011;1433;49.976;8.342;2023-02-17T06:46:15;5.40;;;4.77;;
2850;SDS011;1433;49.976;8.342;2023-02-17T06:48:41;5.40;;;5.00;;
2850;SDS011;1433;49.976;8.342;2023-02-17T06:51:07;5.47;;;5.03;;
2850;SDS011;1433;49.976;8.342;2023-02-17T06:53:34;6.03;;;5.53;;
2850;SDS011;1433;49.976;8.342;2023-02-17T06:56:00;8.10;;;5.37;;
2850;SDS011;1433;49.976;8.342;2023-02-17T06:58:27;4.47;;;4.07;;
2850;SDS011;1433;49.976;8.342;2023-02-17T07:00:53;5.90;;;5.40;;
2850;SDS011;1433;49.976;8.342;2023-02-17T07:03:19;5.00;;;4.60;;
2850;SDS011;1433;49.976;8.342;2023-02-17T07:05:45;4.70;;;4.30;;
2850;SDS011;1433;49.976;8.342;2023-02-17T07:08:11;6.10;;;4.67;;
2850;SDS011;1433;49.976;8.342;2023-02-17T07:10:38;5.57;;;5.07;;
2850;SDS011;1433;49.976;8.342;2023-02-17T07:13:04;5.20;;;4.77;;
2850;SDS011;1433;49.976;8.342;2023-02-17T07:15:30;4.57;;;4.17;;
2850;SDS011;1433;49.976;8.342;2023-02-17T07:17:56;5.30;;;4.90;;
2850;SDS011;1433;49.976;8.342;2023-02-17T07:20:23;4.70;;;4.37;;
2850;SDS011;1433;49.976;8.342;2023-02-17T07:22:49;5.33;;;4.83;;
2850;SDS011;1433;49.976;8.342;2023-02-17T07:25:15;5.60;;;4.83;;
2850;SDS011;1433;49.976;8.342;2023-02-17T07:27:42;5.30;;;4.90;;
2850;SDS011;1433;49.976;8.342;2023-02-17T07:30:08;4.50;;;4.10;;
2850;SDS011;1433;49.976;8.342;2023-02-17T07:32:35;6.90;;;5.03;;
2850;SDS011;1433;49.976;8.342;2023-02-17T07:35:02;4.90;;;4.50;;
2850;SDS011;1433;49.976;8.342;2023-02-17T07:37:28;4.13;;;3.83;;
2850;SDS011;1433;49.976;8.342;2023-02-17T07:39:55;4.20;;;3.90;;
2850;SDS011;1433;49.976;8.342;2023-02-17T07:42:22;4.60;;;4.20;;
2850;SDS011;1433;49.976;8.342;2023-02-17T07:44:48;5.43;;;4.97;;
2850;SDS011;1433;49.976;8.342;2023-02-17T07:47:14;5.90;;;5.40;;
2850;SDS011;1433;49.976;8.342;2023-02-17T07:49:41;4.80;;;4.47;;
2850;SDS011;1433;49.976;8.342;2023-02-17T07:52:09;5.03;;;4.53;;
2850;SDS011;1433;49.976;8.342;2023-02-17T07:54:35;4.90;;;4.50;;
2850;SDS011;1433;49.976;8.342;2023-02-17T07:57:02;4.30;;;3.90;;
2850;SDS011;1433;49.976;8.342;2023-02-17T07:59:28;4.60;;;4.27;;
2850;SDS011;1433;49.976;8.342;2023-02-17T08:01:55;3.77;;;3.47;;
2850;SDS011;1433;49.976;8.342;2023-02-17T08:04:21;3.60;;;3.30;;
2850;SDS011;1433;49.976;8.342;2023-02-17T08:06:47;4.33;;;3.97;;
2850;SDS011;1433;49.976;8.342;2023-02-17T08:09:14;5.77;;;5.27;;
2850;SDS011;1433;49.976;8.342;2023-02-17T08:11:59;4.73;;;4.33;;
2850;SDS011;1433;49.976;8.342;2023-02-17T08:14:43;4.57;;;4.17;;
2850;SDS011;1433;49.976;8.342;2023-02-17T08:17:10;5.37;;;4.87;;
2850;SDS011;1433;49.976;8.342;2023-02-17T08:19:36;5.00;;;4.60;;
2850;SDS011;1433;49.976;8.342;2023-02-17T08:22:02;4.00;;;3.70;;
2850;SDS011;1433;49.976;8.342;2023-02-17T08:24:33;4.63;;;4.30;;
2850;SDS011;1433;49.976;8.342;2023-02-17T08:27:02;4.70;;;4.30;;
2850;SDS011;1433;49.976;8.342;2023-02-17T08:29:29;5.60;;;4.73;;
2850;SDS011;1433;49.976;8.342;2023-02-17T08:31:56;5.83;;;5.20;;
2850;SDS011;1433;49.976;8.342;2023-02-17T08:34:23;7.90;;;6.30;;
2850;SDS011;1433;49.976;8.342;2023-02-17T08:36:49;5.30;;;4.90;;
2850;SDS011;1433;49.976;8.342;2023-02-17T08:39:17;5.83;;;4.87;;
2850;SDS011;1433;49.976;8.342;2023-02-17T08:41:44;5.83;;;5.43;;
2850;SDS011;1433;49.976;8.342;2023-02-17T08:44:13;8.07;;;7.27;;
2850;SDS011;1433;49.976;8.342;2023-02-17T08:46:42;7.40;;;6.20;;
2850;SDS011;1433;49.976;8.342;2023-02-17T08:49:09;7.80;;;7.10;;
2850;SDS011;1433;49.976;8.342;2023-02-17T08:51:36;6.57;;;6.00;;
2850;SDS011;1433;49.976;8.342;2023-02-17T08:54:03;7.40;;;6.67;;
2850;SDS011;1433;49.976;8.342;2023-02-17T08:56:31;7.10;;;6.47;;
2850;SDS011;1433;49.976;8.342;2023-02-17T08:58:59;8.77;;;7.90;;
2850;SDS011;1433;49.976;8.342;2023-02-17T09:01:26;6.50;;;5.87;;
2850;SDS011;1433;49.976;8.342;2023-02-17T09:03:52;7.73;;;7.03;;
2850;SDS011;1433;49.976;8.342;2023-02-17T09:06:21;6.57;;;6.03;;
2850;SDS011;1433;49.976;8.342;2023-02-17T09:08:49;8.23;;;7.50;;
2850;SDS011;1433;49.976;8.342;2023-02-17T09:11:16;6.83;;;6.27;;
2850;SDS011;1433;49.976;8.342;2023-02-17T09:13:44;7.03;;;6.43;;
2850;SDS011;1433;49.976;8.342;2023-02-17T09:16:11;7.03;;;6.43;;
2850;SDS011;1433;49.976;8.342;2023-02-17T09:18:37;7.20;;;6.50;;
2850;SDS011;1433;49.976;8.342;2023-02-17T09:21:04;8.50;;;7.73;;
2850;SDS011;1433;49.976;8.342;2023-02-17T09:23:34;8.03;;;7.40;;
2850;SDS011;1433;49.976;8.342;2023-02-17T09:26:03;8.33;;;7.50;;
2850;SDS011;1433;49.976;8.342;2023-02-17T09:28:31;8.60;;;7.90;;
2850;SDS011;1433;49.976;8.342;2023-02-17T09:31:06;7.70;;;7.00;;
2850;SDS011;1433;49.976;8.342;2023-02-17T09:33:39;9.13;;;7.63;;
2850;SDS011;1433;49.976;8.342;2023-02-17T09:36:07;8.03;;;7.13;;
2850;SDS011;1433;49.976;8.342;2023-02-17T09:38:39;7.83;;;7.13;;
2850;SDS011;1433;49.976;8.342;2023-02-17T09:44:15;8.70;;;7.63;;
2850;SDS011;1433;49.976;8.342;2023-02-17T09:46:58;7.80;;;7.20;;
2850;SDS011;1433;49.976;8.342;2023-02-17T09:49:39;7.97;;;7.20;;
2850;SDS011;1433;49.976;8.342;2023-02-17T09:57:36;6.70;;;6.13;;
2850;SDS011;1433;49.976;8.342;2023-02-17T10:00:14;6.43;;;5.77;;
2850;SDS011;1433;49.976;8.342;2023-02-17T10:02:54;6.60;;;6.00;;
2850;SDS011;1433;49.976;8.342;2023-02-17T10:05:34;5.93;;;5.43;;
2850;SDS011;1433;49.976;8.342;2023-02-17T10:10:49;6.13;;;5.63;;
2850;SDS011;1433;49.976;8.342;2023-02-17T10:13:16;5.67;;;5.17;;
2850;SDS011;1433;49.976;8.342;2023-02-17T10:15:47;5.00;;;4.70;;
2850;SDS011;1433;49.976;8.342;2023-02-17T10:18:18;4.70;;;4.40;;
2850;SDS011;1433;49.976;8.342;2023-02-17T10:20:51;4.57;;;4.17;;
2850;SDS011;1433;49.976;8.342;2023-02-17T10:23:31;6.10;;;3.90;;
2850;SDS011;1433;49.976;8.342;2023-02-17T10:26:18;4.73;;;4.33;;
2850;SDS011;1433;49.976;8.342;2023-02-17T10:34:46;3.80;;;3.50;;
2850;SDS011;1433;49.976;8.342;2023-02-17T10:37:52;5.03;;;4.53;;
2850;SDS011;1433;49.976;8.342;2023-02-17T10:40:20;4.17;;;3.77;;
2850;SDS011;1433;49.976;8.342;2023-02-17T10:42:51;4.20;;;3.87;;
2850;SDS011;1433;49.976;8.342;2023-02-17T10:48:17;4.60;;;4.20;;
2850;SDS011;1433;49.976;8.342;2023-02-17T10:50:44;4.80;;;4.07;;
2850;SDS011;1433;49.976;8.342;2023-02-17T10:53:16;4.13;;;3.83;;
2850;SDS011;1433;49.976;8.342;2023-02-17T10:58:35;4.70;;;4.30;;
2850;SDS011;1433;49.976;8.342;2023-02-17T11:01:21;3.20;;;3.00;;
2850;SDS011;1433;49.976;8.342;2023-02-17T11:03:57;4.30;;;4.00;;
2850;SDS011;1433;49.976;8.342;2023-02-17T11:06:31;4.37;;;3.97;;
2850;SDS011;1433;49.976;8.342;2023-02-17T11:09:19;4.57;;;4.27;;
2850;SDS011;1433;49.976;8.342;2023-02-17T11:11:59;4.60;;;4.20;;
2850;SDS011;1433;49.976;8.342;2023-02-17T11:14:29;4.47;;;4.07;;
2850;SDS011;1433;49.976;8.342;2023-02-17T11:16:59;4.00;;;3.70;;
2850;SDS011;1433;49.976;8.342;2023-02-17T11:19:39;3.60;;;3.30;;
2850;SDS011;1433;49.976;8.342;2023-02-17T11:22:18;4.13;;;3.73;;
2850;SDS011;1433;49.976;8.342;2023-02-17T11:25:16;3.67;;;2.93;;
2850;SDS011;1433;49.976;8.342;2023-02-17T11:27:53;2.87;;;2.63;;
2850;SDS011;1433;49.976;8.342;2023-02-17T11:30:26;3.57;;;3.27;;
2850;SDS011;1433;49.976;8.342;2023-02-17T11:32:56;3.50;;;2.97;;
2850;SDS011;1433;49.976;8.342;2023-02-17T11:38:21;3.50;;;3.20;;
2850;SDS011;1433;49.976;8.342;2023-02-17T11:43:24;12.53;;;3.67;;
2850;SDS011;1433;49.976;8.342;2023-02-17T11:45:55;3.10;;;2.80;;
2850;SDS011;1433;49.976;8.342;2023-02-17T11:51:47;4.60;;;4.20;;
2850;SDS011;1433;49.976;8.342;2023-02-17T11:54:42;3.80;;;3.50;;
2850;SDS011;1433;49.976;8.342;2023-02-17T11:57:39;4.00;;;3.70;;
2850;SDS011;1433;49.976;8.342;2023-02-17T12:27:18;2.90;;;2.70;;
2850;SDS011;1433;49.976;8.342;2023-02-17T12:33:05;2.30;;;2.10;;
2850;SDS011;1433;49.976;8.342;2023-02-17T12:35:44;3.80;;;1.73;;
2850;SDS011;1433;49.976;8.342;2023-02-17T12:38:26;2.83;;;2.63;;
2850;SDS011;1433;49.976;8.342;2023-02-17T12:43:48;2.90;;;2.17;;
2850;SDS011;1433;49.976;8.342;2023-02-17T12:46:22;4.40;;;2.17;;
2850;SDS011;1433;49.976;8.342;2023-02-17T12:49:03;2.13;;;1.90;;
2850;SDS011;1433;49.976;8.342;2023-02-17T12:51:49;2.10;;;1.87;;
2850;SDS011;1433;49.976;8.342;2023-02-17T12:59:43;2.23;;;1.77;;
2850;SDS011;1433;49.976;8.342;2023-02-17T13:02:20;2.30;;;2.10;;
2850;SDS011;1433;49.976;8.342;2023-02-17T13:04:54;3.90;;;2.27;;
2850;SDS011;1433;49.976;8.342;2023-02-17T13:07:22;2.37;;;2.17;;
2850;SDS011;1433;49.976;8.342;2023-02-17T13:09:57;2.30;;;2.10;;
2850;SDS011;1433;49.976;8.342;2023-02-17T13:15:03;2.33;;;2.17;;
2850;SDS011;1433;49.976;8.342;2023-02-17T13:17:38;2.10;;;2.00;;
2850;SDS011;1433;49.976;8.342;2023-02-17T13:20:27;1.93;;;1.83;;
2850;SDS011;1433;49.976;8.342;2023-02-17T13:23:05;1.70;;;1.60;;
2850;SDS011;1433;49.976;8.342;2023-02-17T13:25:36;2.60;;;2.13;;
2850;SDS011;1433;49.976;8.342;2023-02-17T13:28:15;2.30;;;2.10;;
2850;SDS011;1433;49.976;8.342;2023-02-17T13:31:07;2.10;;;1.90;;
2850;SDS011;1433;49.976;8.342;2023-02-17T13:33:44;2.67;;;2.10;;
2850;SDS011;1433;49.976;8.342;2023-02-17T13:36:18;2.07;;;1.90;;
2850;SDS011;1433;49.976;8.342;2023-02-17T13:38:53;3.00;;;2.80;;
2850;SDS011;1433;49.976;8.342;2023-02-17T13:41:27;2.10;;;1.90;;
2850;SDS011;1433;49.976;8.342;2023-02-17T13:44:13;2.40;;;2.17;;
2850;SDS011;1433;49.976;8.342;2023-02-17T13:46:59;2.30;;;2.10;;
2850;SDS011;1433;49.976;8.342;2023-02-17T13:49:29;3.50;;;2.00;;
2850;SDS011;1433;49.976;8.342;2023-02-17T13:52:06;2.90;;;1.70;;
2850;SDS011;1433;49.976;8.342;2023-02-17T13:54:50;2.13;;;2.03;;
2850;SDS011;1433;49.976;8.342;2023-02-17T13:57:37;2.03;;;1.87;;
2850;SDS011;1433;49.976;8.342;2023-02-17T14:00:04;2.00;;;1.90;;
2850;SDS011;1433;49.976;8.342;2023-02-17T14:02:53;2.80;;;2.20;;
2850;SDS011;1433;49.976;8.342;2023-02-17T14:05:25;2.03;;;1.90;;
2850;SDS011;1433;49.976;8.342;2023-02-17T14:08:10;2.10;;;1.93;;
2850;SDS011;1433;49.976;8.342;2023-02-17T14:11:02;2.20;;;2.10;;
2850;SDS011;1433;49.976;8.342;2023-02-17T14:13:35;4.33;;;2.30;;
2850;SDS011;1433;49.976;8.342;2023-02-17T14:16:04;2.33;;;2.17;;
2850;SDS011;1433;49.976;8.342;2023-02-17T14:18:35;3.37;;;2.13;;
2850;SDS011;1433;49.976;8.342;2023-02-17T14:21:07;2.17;;;2.07;;
2850;SDS011;1433;49.976;8.342;2023-02-17T14:23:45;2.80;;;2.60;;
2850;SDS011;1433;49.976;8.342;2023-02-17T14:29:15;2.20;;;2.00;;
2850;SDS011;1433;49.976;8.342;2023-02-17T14:31:42;2.33;;;2.13;;
2850;SDS011;1433;49.976;8.342;2023-02-17T14:34:25;2.77;;;2.57;;
2850;SDS011;1433;49.976;8.342;2023-02-17T14:37:05;3.07;;;2.77;;
2850;SDS011;1433;49.976;8.342;2023-02-17T14:39:40;2.50;;;2.30;;
2850;SDS011;1433;49.976;8.342;2023-02-17T14:42:07;2.90;;;2.37;;
2850;SDS011;1433;49.976;8.342;2023-02-17T14:44:33;2.33;;;2.17;;
2850;SDS011;1433;49.976;8.342;2023-02-17T14:47:00;2.63;;;2.43;;
2850;SDS011;1433;49.976;8.342;2023-02-17T14:49:28;2.00;;;1.90;;
2850;SDS011;1433;49.976;8.342;2023-02-17T14:51:56;2.17;;;1.97;;
2850;SDS011;1433;49.976;8.342;2023-02-17T14:54:23;1.83;;;1.70;;
2850;SDS011;1433;49.976;8.342;2023-02-17T14:59:30;2.80;;;1.90;;
2850;SDS011;1433;49.976;8.342;2023-02-17T15:01:56;2.60;;;1.80;;
2850;SDS011;1433;49.976;8.342;2023-02-17T15:04:23;2.10;;;1.80;;
2850;SDS011;1433;49.976;8.342;2023-02-17T15:06:50;1.60;;;1.50;;
2850;SDS011;1433;49.976;8.342;2023-02-17T15:09:19;1.57;;;1.47;;
2850;SDS011;1433;49.976;8.342;2023-02-17T15:11:50;1.80;;;1.70;;
2850;SDS011;1433;49.976;8.342;2023-02-17T15:14:18;1.50;;;1.40;;
2850;SDS011;1433;49.976;8.342;2023-02-17T15:16:46;1.70;;;1.60;;
2850;SDS011;1433;49.976;8.342;2023-02-17T15:19:13;1.90;;;1.80;;
2850;SDS011;1433;49.976;8.342;2023-02-17T15:21:47;1.70;;;1.60;;
2850;SDS011;1433;49.976;8.342;2023-02-17T15:24:24;1.70;;;1.50;;
2850;SDS011;1433;49.976;8.342;2023-02-17T15:26:53;3.40;;;1.70;;
2850;SDS011;1433;49.976;8.342;2023-02-17T15:29:20;3.00;;;2.03;;
2850;SDS011;1433;49.976;8.342;2023-02-17T15:31:49;1.70;;;1.60;;
2850;SDS011;1433;49.976;8.342;2023-02-17T15:34:18;1.97;;;1.87;;
2850;SDS011;1433;49.976;8.342;2023-02-17T15:36:46;1.63;;;1.53;;
2850;SDS011;1433;49.976;8.342;2023-02-17T15:39:14;2.07;;;1.87;;
2850;SDS011;1433;49.976;8.342;2023-02-17T15:41:45;1.77;;;1.67;;
2850;SDS011;1433;49.976;8.342;2023-02-17T15:44:14;1.97;;;1.83;;
2850;SDS011;1433;49.976;8.342;2023-02-17T15:46:48;2.10;;;1.57;;
2850;SDS011;1433;49.976;8.342;2023-02-17T15:49:16;1.70;;;1.60;;
2850;SDS011;1433;49.976;8.342;2023-02-17T15:51:43;2.03;;;1.90;;
2850;SDS011;1433;49.976;8.342;2023-02-17T15:54:09;1.83;;;1.73;;
2850;SDS011;1433;49.976;8.342;2023-02-17T15:56:43;2.37;;;2.17;;
2850;SDS011;1433;49.976;8.342;2023-02-17T15:59:18;1.67;;;1.57;;
2850;SDS011;1433;49.976;8.342;2023-02-17T16:01:47;2.00;;;1.90;;
2850;SDS011;1433;49.976;8.342;2023-02-17T16:04:15;2.33;;;1.90;;
2850;SDS011;1433;49.976;8.342;2023-02-17T16:06:42;2.00;;;1.90;;
2850;SDS011;1433;49.976;8.342;2023-02-17T16:09:09;1.60;;;1.50;;
2850;SDS011;1433;49.976;8.342;2023-02-17T16:11:36;1.77;;;1.67;;
2850;SDS011;1433;49.976;8.342;2023-02-17T16:14:07;2.23;;;1.90;;
2850;SDS011;1433;49.976;8.342;2023-02-17T16:16:37;1.37;;;1.27;;
2850;SDS011;1433;49.976;8.342;2023-02-17T16:19:03;1.40;;;1.30;;
2850;SDS011;1433;49.976;8.342;2023-02-17T16:21:30;4.10;;;1.40;;
2850;SDS011;1433;49.976;8.342;2023-02-17T16:23:56;1.60;;;1.50;;
2850;SDS011;1433;49.976;8.342;2023-02-17T16:26:27;1.57;;;1.47;;
2850;SDS011;1433;49.976;8.342;2023-02-17T16:28:58;2.80;;;1.93;;
2850;SDS011;1433;49.976;8.342;2023-02-17T16:31:28;1.40;;;1.30;;
2850;SDS011;1433;49.976;8.342;2023-02-17T16:33:56;1.40;;;1.30;;
2850;SDS011;1433;49.976;8.342;2023-02-17T16:36:24;1.70;;;1.30;;
2850;SDS011;1433;49.976;8.342;2023-02-17T16:38:55;1.53;;;1.43;;
2850;SDS011;1433;49.976;8.342;2023-02-17T16:41:21;2.60;;;1.77;;
2850;SDS011;1433;49.976;8.342;2023-02-17T16:43:47;1.63;;;1.53;;
2850;SDS011;1433;49.976;8.342;2023-02-17T16:46:19;1.47;;;1.37;;
2850;SDS011;1433;49.976;8.342;2023-02-17T16:49:01;3.00;;;1.50;;
2850;SDS011;1433;49.976;8.342;2023-02-17T16:51:31;2.00;;;1.50;;
2850;SDS011;1433;49.976;8.342;2023-02-17T16:53:57;1.70;;;1.60;;
2850;SDS011;1433;49.976;8.342;2023-02-17T16:56:25;1.40;;;1.30;;
2850;SDS011;1433;49.976;8.342;2023-02-17T16:58:55;1.23;;;1.13;;
2850;SDS011;1433;49.976;8.342;2023-02-17T17:01:22;1.60;;;1.50;;
2850;SDS011;1433;49.976;8.342;2023-02-17T17:03:48;1.80;;;1.70;;
2850;SDS011;1433;49.976;8.342;2023-02-17T17:08:51;1.77;;;1.50;;
2850;SDS011;1433;49.976;8.342;2023-02-17T17:11:20;1.53;;;1.30;;
2850;SDS011;1433;49.976;8.342;2023-02-17T17:13:49;1.50;;;1.40;;
2850;SDS011;1433;49.976;8.342;2023-02-17T17:16:20;1.67;;;1.57;;
2850;SDS011;1433;49.976;8.342;2023-02-17T17:18:54;2.23;;;1.83;;
2850;SDS011;1433;49.976;8.342;2023-02-17T17:21:22;1.67;;;1.57;;